메인 페이지
METAR-TAF:

METAR-TAF

공항 :

홍콩, 중국

홍콩 국제공항

위도: 22-19N, 경도: 113-55E, 고도: 9m

현재 날씨관측

예보는 49분 전, 00:00시(UTC)에 발표되었습니다.
동남동11kt
온도 19°C
습도 68%
기압 1018 hPa
시정 10km 이상
고도 1500ft 상공 구름 조금
고도 2500ft 상공 구름 보통

METAR: VHHH 180000Z 11011KT 9999 FEW015 SCT025 19/13 Q1018 NOSIG

시각: 08:49 (00:49 UTC)

예보

예보는 1 시간 49분 전, 23:00시(UTC)에 발표되었습니다.
예보 대상 시간: 18일 00시부터 19일 06시까지 (UTC)
10kt
시정 10km 이상
고도 2000ft 상공 구름 조금
고도 3000ft 상공 구름 보통
일시적
18일 18시부터 19일 03시까지 (UTC)
시정: 4000m
약한비, 박무

TAF: VHHH 172300Z 1800/1906 09010KT 9999 FEW020 SCT030 TX21/1806Z TX23/1906Z TN18/1823Z TEMPO 1818/1903 4000 -RA BR

4,000개 이상의 공항 관측 자료 및 예보 (METAR 및 TAF 보고).

지도상에서 검색 가능한 기상관측소가 노란 점과 빨간 점으로 표시되어 있습니다.

기상관측소 명을 보려면 표시 위로 마우스를 이동하세요.

날씨 관측과 예보를 보려면 클릭하세요.

지도 변경 : 확대하려면 엑스 표시가 있는 녹색 버튼, 축소하려면 빼기 표시가 있는 녹색 버튼, 다음 페이지의 지도를 보려면 녹색 화살표를 클릭하세요.


METAR-TAF: